Time;durP1;ratioP1;P1;durP2;ratioP2;P2;SDS_P1;SDS_P2;PMS_P1;PMS_P2;Temp;Humidity;BMP_temperature;BMP_pressure;BME280_temperature;BME280_humidity;BME280_pressure;Samples;Min_cycle;Max_cycle;Signal;HPM_P1;HPM_P2
2023/03/06 00:02:10;;;;;;;;;;;17.10;78.70;;;;;;5005494;28;42963;-76
2023/03/06 00:04:36;;;;;;;;;;;;;;;;;;5005289;28;43039;-80
2023/03/06 00:07:01;;;;;;;;;;;17.10;78.70;;;;;;5005422;28;42985;-76
2023/03/06 00:09:27;;;;;;;;;;;;;;;;;;5005071;28;43564;-77
2023/03/06 00:11:52;;;;;;;;;;;17.10;78.80;;;;;;5005790;28;42947;-76
2023/03/06 00:14:18;;;;;;;;;;;17.10;78.70;;;;;;5005863;28;42972;-78
2023/03/06 00:16:44;;;;;;;;;;;;;;;;;;5005571;28;42818;-76
2023/03/06 00:19:09;;;;;;;;;;;17.20;78.50;;;;;;5005768;28;43746;-76
2023/03/06 00:21:35;;;;;;;;;;;17.00;78.80;;;;;;5005546;28;42876;-76
2023/03/06 00:24:00;;;;;;;;;;;17.20;79.00;;;;;;5020293;28;42904;-77
2023/03/06 00:26:26;;;;;;;;;;;17.10;78.90;;;;;;5005441;28;43322;-76
2023/03/06 00:28:52;;;;;;;;;;;17.10;79.50;;;;;;5005455;28;43484;-77
2023/03/06 00:31:17;;;;;;;;;;;17.10;79.00;;;;;;5005122;28;42890;-77
2023/03/06 00:33:43;;;;;;;;;;;17.10;79.50;;;;;;5005216;28;42831;-78
2023/03/06 00:36:08;;;;;;;;;;;17.20;79.70;;;;;;5005376;28;43008;-76
2023/03/06 00:38:35;;;;;;;;;;;17.10;79.40;;;;;;5005130;28;43439;-76
2023/03/06 00:41:01;;;;;;;;;;;;;;;;;;5005069;28;42998;-76
2023/03/06 00:43:27;;;;;;;;;;;17.20;78.70;;;;;;5004782;28;43515;-76
2023/03/06 00:45:53;;;;;;;;;;;;;;;;;;5005090;28;43015;-76
2023/03/06 00:48:19;;;;;;;;;;;;;;;;;;5005239;28;43634;-77
2023/03/06 00:50:44;;;;;;;;;;;;;;;;;;5005037;28;43029;-76
2023/03/06 00:53:12;;;;;;;;;;;17.00;79.00;;;;;;5005021;28;43872;-76
2023/03/06 00:55:37;;;;;;;;;;;17.10;79.70;;;;;;5004957;28;42890;-76
2023/03/06 00:58:03;;;;;;;;;;;;;;;;;;5004867;28;42931;-77
2023/03/06 01:00:28;;;;;;;;;;;17.10;79.20;;;;;;5004678;28;43024;-76
2023/03/06 01:02:54;;;;;;;;;;;;;;;;;;5005088;28;42758;-76
2023/03/06 01:05:20;;;;;;;;;;;;;;;;;;5007861;28;42784;-77
2023/03/06 01:07:46;;;;;;;;;;;17.10;78.70;;;;;;5008013;28;42987;-77
2023/03/06 01:10:12;;;;;;;;;;;;;;;;;;5008011;28;42864;-76
2023/03/06 01:12:38;;;;;;;;;;;;;;;;;;5008234;28;43847;-76
2023/03/06 01:15:04;;;;;;;;;;;;;;;;;;5008656;28;42967;-76
2023/03/06 01:17:29;;;;;;;;;;;;;;;;;;5008147;28;43803;-76
2023/03/06 01:19:56;;;;;;;;;;;17.10;78.90;;;;;;5007680;28;42952;-76
2023/03/06 01:22:22;;;;;;;;;;;;;;;;;;5008166;28;43018;-77
2023/03/06 01:24:47;;;;;;;;;;;17.20;78.80;;;;;;5008498;28;42967;-76
2023/03/06 01:27:13;;;;;;;;;;;;;;;;;;5006441;28;42896;-76
2023/03/06 01:29:39;;;;;;;;;;;;;;;;;;5008273;28;42873;-76
2023/03/06 01:32:05;;;;;;;;;;;;;;;;;;5008302;28;42870;-77
2023/03/06 01:34:31;;;;;;;;;;;;;;;;;;5008118;28;42783;-76
2023/03/06 01:36:56;;;;;;;;;;;17.10;78.70;;;;;;5008246;28;42956;-77
2023/03/06 01:39:22;;;;;;;;;;;17.10;79.70;;;;;;5007917;28;42960;-77
2023/03/06 01:41:47;;;;;;;;;;;17.10;79.10;;;;;;5007847;28;43878;-76
2023/03/06 01:44:13;;;;;;;;;;;;;;;;;;5008047;28;42869;-77
2023/03/06 01:46:42;;;;;;;;;;;16.90;79.00;;;;;;5007369;28;42936;-76
2023/03/06 01:49:08;;;;;;;;;;;;;;;;;;5007826;28;43182;-77
2023/03/06 01:51:36;;;;;;;;;;;17.20;78.70;;;;;;5007735;28;42743;-76
2023/03/06 01:54:02;;;;;;;;;;;;;;;;;;5007880;28;43140;-76
2023/03/06 01:56:28;;;;;;;;;;;17.10;79.20;;;;;;5007780;28;44185;-76
2023/03/06 01:58:53;;;;;;;;;;;17.00;79.70;;;;;;5008013;28;42889;-77
2023/03/06 02:01:19;;;;;;;;;;;;;;;;;;5007498;28;43160;-76
2023/03/06 02:03:46;;;;;;;;;;;17.10;79.20;;;;;;5008151;28;42898;-76
2023/03/06 02:06:12;;;;;;;;;;;17.10;79.20;;;;;;5007070;28;42944;-77
2023/03/06 02:08:38;;;;;;;;;;;17.00;79.70;;;;;;5006768;28;42946;-76
2023/03/06 02:11:03;;;;;;;;;;;17.10;79.20;;;;;;5006821;28;44235;-76
2023/03/06 02:13:29;;;;;;;;;;;17.10;80.30;;;;;;5007010;28;42984;-76
2023/03/06 02:15:55;;;;;;;;;;;;;;;;;;5007003;28;42998;-77
2023/03/06 02:18:21;;;;;;;;;;;17.20;78.90;;;;;;5007541;28;42936;-76
2023/03/06 02:20:50;;;;;;;;;;;17.10;79.80;;;;;;5006799;28;42941;-77
2023/03/06 02:23:25;;;;;;;;;;;17.10;78.50;;;;;;5006174;28;43004;-76
2023/03/06 02:25:51;;;;;;;;;;;17.20;78.70;;;;;;5004693;28;43094;-76
2023/03/06 02:28:18;;;;;;;;;;;17.10;79.40;;;;;;5006887;28;42834;-76
2023/03/06 02:30:44;;;;;;;;;;;;;;;;;;5006228;28;42937;-76
2023/03/06 02:33:13;;;;;;;;;;;17.10;79.50;;;;;;5006427;28;43052;-76
2023/03/06 02:35:39;;;;;;;;;;;17.00;78.70;;;;;;5006241;28;43508;-76
2023/03/06 02:38:08;;;;;;;;;;;17.20;79.60;;;;;;5004309;28;42962;-80
2023/03/06 02:40:34;;;;;;;;;;;17.00;80.00;;;;;;5005859;28;42934;-76
2023/03/06 02:43:00;;;;;;;;;;;17.10;80.00;;;;;;5006133;28;42837;-77
2023/03/06 02:45:26;;;;;;;;;;;;;;;;;;5000551;28;43040;-80
2023/03/06 02:47:52;;;;;;;;;;;;;;;;;;5005542;28;43090;-79
2023/03/06 02:50:18;;;;;;;;;;;;;;;;;;5005529;28;42935;-80
2023/03/06 02:52:43;;;;;;;;;;;17.20;79.60;;;;;;5006400;28;42937;-77
2023/03/06 02:55:09;;;;;;;;;;;17.20;79.50;;;;;;5020900;28;44502;-77
2023/03/06 02:57:34;;;;;;;;;;;17.10;80.00;;;;;;5005442;28;42937;-76
2023/03/06 03:00:00;;;;;;;;;;;17.00;80.10;;;;;;5005166;28;43690;-76
2023/03/06 03:02:25;;;;;;;;;;;;;;;;;;5006206;28;42946;-77
2023/03/06 03:04:51;;;;;;;;;;;17.20;79.20;;;;;;5005721;28;42953;-77
2023/03/06 03:07:16;;;;;;;;;;;17.20;80.20;;;;;;5006064;28;42881;-77
2023/03/06 03:09:42;;;;;;;;;;;;;;;;;;5005808;28;43428;-77
2023/03/06 03:12:08;;;;;;;;;;;;;;;;;;5004338;28;43612;-78
2023/03/06 03:14:34;;;;;;;;;;;;;;;;;;5005528;28;43582;-77
2023/03/06 03:17:00;;;;;;;;;;;17.20;79.70;;;;;;5005833;28;42843;-76
2023/03/06 03:19:25;;;;;;;;;;;17.20;80.10;;;;;;5005747;28;43431;-76
2023/03/06 03:21:51;;;;;;;;;;;;;;;;;;5005599;28;42834;-77
2023/03/06 03:24:17;;;;;;;;;;;17.10;79.70;;;;;;5004875;28;42903;-77
2023/03/06 03:26:42;;;;;;;;;;;17.20;80.20;;;;;;5003062;28;42884;-76
2023/03/06 03:29:09;;;;;;;;;;;;;;;;;;5005006;28;43656;-76
2023/03/06 03:31:35;;;;;;;;;;;17.10;79.70;;;;;;5004875;28;42996;-76
2023/03/06 03:34:01;;;;;;;;;;;;;;;;;;5004595;28;42921;-77
2023/03/06 03:36:27;;;;;;;;;;;;;;;;;;5005533;28;42965;-76
2023/03/06 03:38:52;;;;;;;;;;;17.10;79.60;;;;;;5005477;28;42926;-76
2023/03/06 03:41:18;;;;;;;;;;;;;;;;;;5005047;28;43057;-76
2023/03/06 03:43:44;;;;;;;;;;;17.10;79.70;;;;;;5005566;28;43034;-78
2023/03/06 03:46:10;;;;;;;;;;;;;;;;;;5004803;28;43044;-76
2023/03/06 03:48:35;;;;;;;;;;;17.10;79.10;;;;;;5004093;28;43957;-76
2023/03/06 03:51:01;;;;;;;;;;;;;;;;;;5004170;28;43004;-76
2023/03/06 03:53:27;;;;;;;;;;;;;;;;;;5004859;28;43503;-76
2023/03/06 03:55:53;;;;;;;;;;;17.10;79.60;;;;;;5005079;28;42793;-76
2023/03/06 03:58:19;;;;;;;;;;;;;;;;;;5004654;28;43682;-76
2023/03/06 04:00:46;;;;;;;;;;;;;;;;;;5004773;28;43030;-77
2023/03/06 04:03:11;;;;;;;;;;;;;;;;;;5004565;28;44583;-76
2023/03/06 04:05:37;;;;;;;;;;;;;;;;;;5004694;28;42770;-76
2023/03/06 04:08:04;;;;;;;;;;;;;;;;;;5005095;28;44021;-76
2023/03/06 04:10:30;;;;;;;;;;;;;;;;;;5002413;28;43057;-76
2023/03/06 04:12:55;;;;;;;;;;;17.10;79.70;;;;;;5002849;28;43758;-76
2023/03/06 04:15:21;;;;;;;;;;;;;;;;;;5004490;28;42940;-76
2023/03/06 04:17:47;;;;;;;;;;;;;;;;;;5004298;28;43856;-78
2023/03/06 04:20:13;;;;;;;;;;;17.10;79.70;;;;;;5004878;28;42965;-76
2023/03/06 04:22:38;;;;;;;;;;;16.90;79.70;;;;;;5004330;28;43617;-76
2023/03/06 04:25:04;;;;;;;;;;;;;;;;;;5004527;28;42965;-76
2023/03/06 04:27:30;;;;;;;;;;;17.10;79.40;;;;;;5003874;28;43008;-76
2023/03/06 04:29:55;;;;;;;;;;;17.30;80.50;;;;;;5003526;28;43089;-76
2023/03/06 04:32:21;;;;;;;;;;;17.10;79.80;;;;;;5004211;28;43128;-76
2023/03/06 04:34:47;;;;;;;;;;;17.00;79.80;;;;;;5004649;28;43027;-76
2023/03/06 04:37:17;;;;;;;;;;;17.00;79.80;;;;;;5003761;28;42896;-76
2023/03/06 04:39:43;;;;;;;;;;;;;;;;;;5003625;28;43011;-76
2023/03/06 04:42:09;;;;;;;;;;;;;;;;;;5018689;28;43017;-76
2023/03/06 04:44:35;;;;;;;;;;;;;;;;;;5004688;28;42869;-76
2023/03/06 04:47:01;;;;;;;;;;;;;;;;;;5003739;28;42988;-76
2023/03/06 04:49:26;;;;;;;;;;;17.20;79.40;;;;;;5004480;28;43260;-77
2023/03/06 04:51:52;;;;;;;;;;;17.60;80.80;;;;;;5003566;28;42976;-76
2023/03/06 04:54:17;;;;;;;;;;;17.10;79.90;;;;;;5003495;28;43156;-76
2023/03/06 04:56:42;;;;;;;;;;;17.00;79.90;;;;;;5001569;28;43519;-76
2023/03/06 04:59:08;;;;;;;;;;;;;;;;;;5004067;28;42826;-76
2023/03/06 05:01:34;;;;;;;;;;;;;;;;;;5004136;28;43022;-77
2023/03/06 05:04:00;;;;;;;;;;;17.00;79.50;;;;;;5004342;28;43352;-77
2023/03/06 05:06:25;;;;;;;;;;;17.00;80.60;;;;;;5003919;28;43783;-77
2023/03/06 05:08:51;;;;;;;;;;;17.10;80.60;;;;;;5004582;28;42979;-76
2023/03/06 05:11:17;;;;;;;;;;;;;;;;;;4993591;28;43448;-77
2023/03/06 05:13:43;;;;;;;;;;;;;;;;;;4984345;28;42840;-77
2023/03/06 05:16:09;;;;;;;;;;;;;;;;;;4983937;28;42928;-76
2023/03/06 05:18:35;;;;;;;;;;;17.10;79.70;;;;;;4992135;28;43400;-76
2023/03/06 05:21:01;;;;;;;;;;;17.00;80.60;;;;;;4998125;28;43001;-77
2023/03/06 05:23:26;;;;;;;;;;;;;;;;;;4994286;28;43000;-76
2023/03/06 05:25:52;;;;;;;;;;;17.10;80.20;;;;;;4995529;28;42889;-76
2023/03/06 05:28:19;;;;;;;;;;;;;;;;;;4993804;28;42933;-88
2023/03/06 05:30:44;;;;;;;;;;;;;;;;;;5008612;28;43123;-77
2023/03/06 05:33:10;;;;;;;;;;;;;;;;;;5012638;28;42955;-80
2023/03/06 05:35:36;;;;;;;;;;;17.10;79.80;;;;;;5014910;28;43791;-80
2023/03/06 05:38:02;;;;;;;;;;;;;;;;;;5009752;28;43057;-79
2023/03/06 05:40:27;;;;;;;;;;;17.10;80.20;;;;;;5002318;28;43821;-79
2023/03/06 05:42:53;;;;;;;;;;;;;;;;;;5003714;28;42992;-78
2023/03/06 05:45:22;;;;;;;;;;;17.10;80.50;;;;;;5003612;28;43140;-81
2023/03/06 05:47:47;;;;;;;;;;;17.10;79.00;;;;;;5002750;28;43001;-83
2023/03/06 05:50:13;;;;;;;;;;;17.00;80.20;;;;;;5004501;28;43467;-78
2023/03/06 05:52:39;;;;;;;;;;;;;;;;;;5005887;28;42909;-76
2023/03/06 05:55:05;;;;;;;;;;;17.00;79.80;;;;;;5011124;28;43908;-79
2023/03/06 05:57:31;;;;;;;;;;;;;;;;;;5033436;28;43023;-80
2023/03/06 05:59:57;;;;;;;;;;;;;;;;;;5004683;28;44257;-79
2023/03/06 06:02:22;;;;;;;;;;;17.10;80.40;;;;;;5016069;28;42900;-80
2023/03/06 06:04:48;;;;;;;;;;;;;;;;;;5016028;28;43517;-78
2023/03/06 06:07:14;;;;;;;;;;;;;;;;;;5012948;28;42983;-79
2023/03/06 06:09:40;;;;;;;;;;;;;;;;;;4999507;28;43514;-79
2023/03/06 06:12:06;;;;;;;;;;;;;;;;;;5007321;28;42964;-81
2023/03/06 06:14:32;;;;;;;;;;;;;;;;;;5003589;28;43914;-79
2023/03/06 06:16:58;;;;;;;;;;;;;;;;;;4993864;28;43009;-78
2023/03/06 06:19:24;;;;;;;;;;;;;;;;;;4997777;28;43210;-78
2023/03/06 06:21:50;;;;;;;;;;;;;;;;;;5009415;28;42997;-79
2023/03/06 06:24:15;;;;;;;;;;;;;;;;;;5012811;28;42916;-80
2023/03/06 06:26:41;;;;;;;;;;;;;;;;;;5025812;28;42932;-79
2023/03/06 06:29:07;;;;;;;;;;;;;;;;;;5011542;28;43833;-79
2023/03/06 06:31:35;;;;;;;;;;;;;;;;;;5007157;28;43060;-80
2023/03/06 06:34:01;;;;;;;;;;;16.50;74.20;;;;;;5011910;28;42943;-79
2023/03/06 06:36:27;;;;;;;;;;;;;;;;;;5018148;28;44012;-79
2023/03/06 06:38:53;;;;;;;;;;;;;;;;;;5017815;28;42904;-81
2023/03/06 06:41:19;;;;;;;;;;;;;;;;;;5026886;28;43010;-81
2023/03/06 06:43:45;;;;;;;;;;;;;;;;;;5026633;28;42891;-80
2023/03/06 06:46:10;;;;;;;;;;;;;;;;;;5026721;28;42968;-80
2023/03/06 06:48:36;;;;;;;;;;;;;;;;;;5026811;28;42860;-80
2023/03/06 06:51:02;;;;;;;;;;;;;;;;;;5026969;28;43030;-81
2023/03/06 06:53:28;;;;;;;;;;;;;;;;;;5026867;28;42984;-84
2023/03/06 06:55:54;;;;;;;;;;;;;;;;;;5026777;28;43162;-80
2023/03/06 06:58:20;;;;;;;;;;;;;;;;;;5041466;28;44727;-81
2023/03/06 07:00:46;;;;;;;;;;;;;;;;;;5026301;28;42951;-81
2023/03/06 07:03:12;;;;;;;;;;;;;;;;;;5026411;28;43398;-81
2023/03/06 07:05:38;;;;;;;;;;;;;;;;;;5026639;28;42845;-81
2023/03/06 07:08:03;;;;;;;;;;;;;;;;;;5026365;28;44061;-80
2023/03/06 07:10:29;;;;;;;;;;;;;;;;;;5026639;28;42900;-81
2023/03/06 07:12:55;;;;;;;;;;;;;;;;;;5026524;28;43784;-80
2023/03/06 07:15:21;;;;;;;;;;;;;;;;;;5026573;28;42714;-81
2023/03/06 07:17:47;;;;;;;;;;;;;;;;;;5025901;28;43483;-80
2023/03/06 07:20:13;;;;;;;;;;;;;;;;;;5026501;28;42990;-80
2023/03/06 07:22:39;;;;;;;;;;;;;;;;;;5026096;28;43395;-80
2023/03/06 07:25:05;;;;;;;;;;;;;;;;;;5026368;28;42764;-80
2023/03/06 07:27:31;;;;;;;;;;;;;;;;;;5026121;28;43335;-81
2023/03/06 07:29:57;;;;;;;;;;;;;;;;;;5026510;28;42951;-81
2023/03/06 07:32:23;;;;;;;;;;;;;;;;;;5025678;28;42939;-85
2023/03/06 07:34:48;;;;;;;;;;;;;;;;;;5040855;28;43006;-80
2023/03/06 07:37:14;;;;;;;;;;;;;;;;;;5025954;28;42868;-81
2023/03/06 07:39:40;;;;;;;;;;;;;;;;;;5041505;28;42928;-80
2023/03/06 07:42:06;;;;;;;;;;;;;;;;;;5041154;28;43003;-80
2023/03/06 07:44:32;;;;;;;;;;;;;;;;;;5040748;28;43001;-81
2023/03/06 07:46:58;;;;;;;;;;;;;;;;;;5025785;28;42915;-80
2023/03/06 07:49:24;;;;;;;;;;;;;;;;;;5025546;28;42920;-79
2023/03/06 07:51:50;;;;;;;;;;;;;;;;;;5025653;28;43030;-80
2023/03/06 07:54:16;;;;;;;;;;;;;;;;;;5025830;28;42924;-80
2023/03/06 07:56:42;;;;;;;;;;;;;;;;;;5025521;28;42897;-80
2023/03/06 07:59:08;;;;;;;;;;;;;;;;;;5025336;28;43023;-80
2023/03/06 08:01:35;;;;;;;;;;;;;;;;;;5025142;28;42976;-80
2023/03/06 08:04:01;;;;;;;;;;;;;;;;;;5040924;28;42935;-80
2023/03/06 08:06:27;;;;;;;;;;;;;;;;;;5025528;28;42737;-80
2023/03/06 08:08:53;;;;;;;;;;;;;;;;;;5025555;28;42903;-82
2023/03/06 08:11:19;;;;;;;;;;;;;;;;;;5025732;28;43808;-80
2023/03/06 08:13:45;;;;;;;;;;;;;;;;;;5025765;28;43046;-80
2023/03/06 08:16:11;;;;;;;;;;;;;;;;;;5041193;28;43584;-80
2023/03/06 08:18:40;;;;;;;;;;;;;;;;;;5025293;28;42974;-80
2023/03/06 08:21:06;;;;;;;;;;;;;;;;;;5025313;28;43590;-80
2023/03/06 08:23:31;;;;;;;;;;;;;;;;;;5025865;28;42984;-79
2023/03/06 08:25:57;;;;;;;;;;;;;;;;;;5025582;28;43077;-82
2023/03/06 08:28:23;;;;;;;;;;;;;;;;;;5025473;28;42849;-79
2023/03/06 08:30:49;;;;;;;;;;;;;;;;;;5025244;28;43520;-79
2023/03/06 08:33:15;;;;;;;;;;;;;;;;;;5025626;28;43310;-80
2023/03/06 08:35:41;;;;;;;;;;;;;;;;;;5025378;28;43663;-80
2023/03/06 08:38:07;;;;;;;;;;;;;;;;;;5025288;28;42811;-80
2023/03/06 08:40:33;;;;;;;;;;;;;;;;;;5025143;28;43983;-80
2023/03/06 08:42:59;;;;;;;;;;;;;;;;;;5025068;28;42942;-79
2023/03/06 08:45:24;;;;;;;;;;;;;;;;;;5024774;28;43654;-79
2023/03/06 08:47:50;;;;;;;;;;;;;;;;;;5024791;28;42755;-80
2023/03/06 08:50:17;;;;;;;;;;;;;;;;;;5040214;28;43836;-79
2023/03/06 08:52:43;;;;;;;;;;;;;;;;;;5024904;28;43066;-80
2023/03/06 08:55:09;;;;;;;;;;;;;;;;;;5039517;28;44137;-80
2023/03/06 08:57:35;;;;;;;;;;;;;;;;;;5024827;28;42865;-80
2023/03/06 09:00:03;;;;;;;;;;;;;;;;;;5025096;28;43438;-81
2023/03/06 09:02:29;;;;;;;;;;;;;;;;;;5025311;28;42976;-79
2023/03/06 09:04:55;;;;;;;;;;;;;;;;;;5024342;28;42936;-80
2023/03/06 09:07:21;;;;;;;;;;;;;;;;;;5024428;28;42995;-80
2023/03/06 09:09:47;;;;;;;;;;;;;;;;;;5024078;28;43001;-80
2023/03/06 09:12:12;;;;;;;;;;;;;;;;;;5039419;28;43094;-80
2023/03/06 09:14:38;;;;;;;;;;;;;;;;;;5025115;28;43014;-80
2023/03/06 09:17:04;;;;;;;;;;;;;;;;;;5024492;28;42905;-80
2023/03/06 09:19:30;;;;;;;;;;;;;;;;;;5024842;28;42944;-79
2023/03/06 09:21:58;;;;;;;;;;;;;;;;;;5024775;28;43128;-79
2023/03/06 09:24:24;;;;;;;;;;;;;;;;;;5025206;28;43711;-80
2023/03/06 09:26:50;;;;;;;;;;;;;;;;;;5027873;28;42861;-80
2023/03/06 09:29:16;;;;;;;;;;;;;;;;;;5028055;28;42974;-79
2023/03/06 09:31:42;;;;;;;;;;;;;;;;;;5028152;28;42825;-79
2023/03/06 09:34:08;;;;;;;;;;;;;;;;;;5027935;28;42787;-80
2023/03/06 09:36:33;;;;;;;;;;;;;;;;;;5027888;28;42818;-80
2023/03/06 09:38:59;;;;;;;;;;;;;;;;;;5027943;28;43017;-80
2023/03/06 09:41:25;;;;;;;;;;;;;;;;;;5028390;28;42909;-79
2023/03/06 09:43:51;;;;;;;;;;;;;;;;;;5027629;28;42936;-80
2023/03/06 09:46:17;;;;;;;;;;;;;;;;;;5027436;28;42995;-80
2023/03/06 09:48:43;;;;;;;;;;;;;;;;;;5027431;28;42975;-81
2023/03/06 09:51:09;;;;;;;;;;;;;;;;;;5027912;28;42909;-80
2023/03/06 09:53:35;;;;;;;;;;;;;;;;;;5043305;28;43314;-79
2023/03/06 09:56:01;;;;;;;;;;;;;;;;;;5027848;28;42971;-80
2023/03/06 09:58:27;;;;;;;;;;;;;;;;;;5027850;28;43848;-80
2023/03/06 10:00:52;;;;;;;;;;;;;;;;;;5027968;28;42896;-80
2023/03/06 10:03:18;;;;;;;;;;;;;;;;;;5027308;28;42995;-80
2023/03/06 10:05:44;;;;;;;;;;;;;;;;;;5027129;28;42925;-79
2023/03/06 10:08:10;;;;;;;;;;;;;;;;;;5027346;28;42873;-80
2023/03/06 10:10:36;;;;;;;;;;;;;;;;;;5027549;28;43304;-80
2023/03/06 10:13:02;;;;;;;;;;;;;;;;;;5026928;28;42940;-79
2023/03/06 10:15:28;;;;;;;;;;;;;;;;;;5026910;28;42758;-80
2023/03/06 10:17:54;;;;;;;;;;;;;;;;;;5026786;28;42897;-79
2023/03/06 10:20:20;;;;;;;;;;;;;;;;;;5027656;28;42828;-79
2023/03/06 10:22:46;;;;;;;;;;;;;;;;;;5027022;28;42762;-80
2023/03/06 10:25:11;;;;;;;;;;;;;;;;;;5042097;28;43059;-80
2023/03/06 10:27:38;;;;;;;;;;;;;;;;;;5027079;28;42921;-80
2023/03/06 10:30:05;;;;;;;;;;;;;;;;;;5027268;28;42903;-80
2023/03/06 10:32:31;;;;;;;;;;;;;;;;;;5026948;28;42834;-80
2023/03/06 10:34:57;;;;;;;;;;;;;;;;;;5026374;28;43098;-80
2023/03/06 10:37:23;;;;;;;;;;;;;;;;;;5026091;28;43466;-80
2023/03/06 10:39:48;;;;;;;;;;;;;;;;;;5026939;28;42792;-80
2023/03/06 10:42:14;;;;;;;;;;;;;;;;;;5026892;28;43502;-81
2023/03/06 10:44:40;;;;;;;;;;;;;;;;;;5026873;28;42915;-81
2023/03/06 10:47:06;;;;;;;;;;;;;;;;;;5026576;28;43445;-80
2023/03/06 10:49:32;;;;;;;;;;;;;;;;;;5026623;28;43091;-80
2023/03/06 10:51:58;;;;;;;;;;;;;;;;;;5026360;28;43413;-80
2023/03/06 10:54:24;;;;;;;;;;;;;;;;;;5026941;28;43088;-80
2023/03/06 10:56:50;;;;;;;;;;;;;;;;;;5026797;28;42947;-80
2023/03/06 10:59:16;;;;;;;;;;;;;;;;;;5027210;28;42915;-80
2023/03/06 11:01:42;;;;;;;;;;;;;;;;;;5027237;28;43018;-80
2023/03/06 11:04:08;;;;;;;;;;;;;;;;;;5041887;28;42865;-80
2023/03/06 11:06:34;;;;;;;;;;;;;;;;;;5026486;28;42934;-81
2023/03/06 11:09:00;;;;;;;;;;;;;;;;;;5026731;28;42910;-80
2023/03/06 11:11:26;;;;;;;;;;;;;;;;;;5026142;28;43804;-80
2023/03/06 11:13:52;;;;;;;;;;;;;;;;;;5026683;28;42841;-80
2023/03/06 11:16:18;;;;;;;;;;;;;;;;;;5026396;28;43760;-81
2023/03/06 11:18:44;;;;;;;;;;;;;;;;;;5026321;28;43040;-87
2023/03/06 11:21:10;;;;;;;;;;;;;;;;;;5041631;28;43389;-80
2023/03/06 11:23:36;;;;;;;;;;;;;;;;;;5025575;28;42913;-82
2023/03/06 11:26:02;;;;;;;;;;;;;;;;;;5024158;28;44907;-83
2023/03/06 11:28:28;;;;;;;;;;;;;;;;;;5027439;28;42983;-80
2023/03/06 11:30:54;;;;;;;;;;;;;;;;;;5030925;28;44432;-80
2023/03/06 11:33:20;;;;;;;;;;;;;;;;;;5015816;28;42743;-82
2023/03/06 11:35:46;;;;;;;;;;;;;;;;;;5013008;28;42984;-79
2023/03/06 11:38:12;;;;;;;;;;;;;;;;;;5016261;28;42999;-80
2023/03/06 11:40:38;;;;;;;;;;;;;;;;;;5015435;28;44022;-80
2023/03/06 11:43:04;;;;;;;;;;;;;;;;;;5011189;28;43205;-83
2023/03/06 11:45:36;;;;;;;;;;;;;;;;;;5003811;28;42904;-82
2023/03/06 11:48:01;;;;;;;;;;;;;;;;;;5008014;28;43142;-82
2023/03/06 11:50:27;;;;;;;;;;;;;;;;;;5013877;28;43022;-80
2023/03/06 11:52:53;;;;;;;;;;;;;;;;;;5028770;28;42925;-78
2023/03/06 11:55:19;;;;;;;;;;;;;;;;;;5015470;28;43082;-80
2023/03/06 11:57:45;;;;;;;;;;;;;;;;;;5014456;28;43048;-79
2023/03/06 12:00:11;;;;;;;;;;;;;;;;;;5014185;28;43015;-79
2023/03/06 12:02:38;;;;;;;;;;;;;;;;;;5012191;28;43083;-81
2023/03/06 12:05:04;;;;;;;;;;;;;;;;;;5014527;28;43013;-80
2023/03/06 12:07:30;;;;;;;;;;;;;;;;;;5014096;28;42942;-79
2023/03/06 12:09:56;;;;;;;;;;;;;;;;;;5026824;28;43854;-80
2023/03/06 12:12:22;;;;;;;;;;;;;;;;;;5002123;28;43019;-75
2023/03/06 12:14:48;;;;;;;;;;;;;;;;;;4991600;28;44544;-77
2023/03/06 12:17:13;;;;;;;;;;;;;;;;;;4995565;28;42929;-78
2023/03/06 12:19:39;;;;;;;;;;;;;;;;;;4994108;28;44290;-79
2023/03/06 12:22:05;;;;;;;;;;;;;;;;;;4993660;28;42893;-81
2023/03/06 12:24:31;;;;;;;;;;;;;;;;;;5002090;28;42948;-81
2023/03/06 12:26:59;;;;;;;;;;;;;;;;;;5013182;28;60911;-81
2023/03/06 12:29:27;;;;;;;;;;;;;;;;;;4994214;28;42878;-80
2023/03/06 12:31:53;;;;;;;;;;;;;;;;;;5001238;28;45194;-83
2023/03/06 12:34:18;;;;;;;;;;;;;;;;;;5014122;28;43742;-83
2023/03/06 12:36:44;;;;;;;;;;;;;;;;;;5009742;28;43083;-81
2023/03/06 12:39:10;;;;;;;;;;;;;;;;;;5014273;28;43007;-85
2023/03/06 12:41:36;;;;;;;;;;;;;;;;;;5013182;28;43101;-83
2023/03/06 12:44:02;;;;;;;;;;;;;;;;;;5013621;28;43623;-79
2023/03/06 12:46:29;;;;;;;;;;;;;;;;;;5014747;28;43139;-83
2023/03/06 12:48:55;;;;;;;;;;;;;;;;;;5012685;28;44027;-79
2023/03/06 12:51:21;;;;;;;;;;;;;;;;;;5014483;28;43031;-78
2023/03/06 12:53:47;;;;;;;;;;;;;;;;;;5014535;28;43045;-78
2023/03/06 12:56:12;;;;;;;;;;;;;;;;;;5012437;28;42877;-79
2023/03/06 12:58:38;;;;;;;;;;;;;;;;;;5013041;28;43380;-78
2023/03/06 13:01:04;;;;;;;;;;;;;;;;;;5013835;28;42946;-80
2023/03/06 13:03:30;;;;;;;;;;;;;;;;;;5013348;28;42916;-79
2023/03/06 13:05:56;;;;;;;;;;;;;;;;;;5015631;28;42991;-79
2023/03/06 13:08:22;;;;;;;;;;;;;;;;;;5012449;28;44513;-82
2023/03/06 13:10:48;;;;;;;;;;;;;;;;;;5013781;28;42957;-80
2023/03/06 13:13:14;;;;;;;;;;;;;;;;;;5015179;28;43003;-79
2023/03/06 13:15:40;;;;;;;;;;;;;;;;;;5012034;28;42874;-80
2023/03/06 13:18:06;;;;;;;;;;;;;;;;;;5013859;28;43473;-80
2023/03/06 13:20:32;;;;;;;;;;;;;;;;;;5013571;28;42888;-80
2023/03/06 13:22:58;;;;;;;;;;;;;;;;;;5013492;28;44552;-79
2023/03/06 13:25:24;;;;;;;;;;;;;;;;;;5005265;28;43150;-81
2023/03/06 13:27:50;;;;;;;;;;;;;;;;;;5005418;28;43709;-80
2023/03/06 13:30:16;;;;;;;;;;;;;;;;;;5012847;28;43008;-80
2023/03/06 13:32:41;;;;;;;;;;;;;;;;;;5013647;28;43599;-80
2023/03/06 13:35:07;;;;;;;;;;;;;;;;;;5013516;28;42843;-82
2023/03/06 13:37:33;;;;;;;;;;;;;;;;;;5011722;28;42899;-79
2023/03/06 13:40:00;;;;;;;;;;;;;;;;;;5023934;28;42762;-78
2023/03/06 13:42:26;;;;;;;;;;;;;;;;;;5001796;28;42986;-78
2023/03/06 13:44:52;;;;;;;;;;;;;;;;;;5002689;28;42979;-80
2023/03/06 13:47:18;;;;;;;;;;;;;;;;;;5003627;28;43528;-79
2023/03/06 13:49:43;;;;;;;;;;;;;;;;;;5003667;28;42982;-80
2023/03/06 13:52:09;;;;;;;;;;;;;;;;;;5002493;28;44029;-79
2023/03/06 13:54:35;;;;;;;;;;;;;;;;;;5004139;28;42968;-82
2023/03/06 13:57:01;;;;;;;;;;;;;;;;;;5003787;28;43003;-81
2023/03/06 13:59:27;;;;;;;;;;;;;;;;;;5009705;28;43070;-78
2023/03/06 14:01:53;;;;;;;;;;;;;;;;;;5028690;28;44616;-79
2023/03/06 14:04:19;;;;;;;;;;;;;;;;;;5012880;28;42909;-80
2023/03/06 14:06:45;;;;;;;;;;;;;;;;;;5013425;28;43395;-79
2023/03/06 14:09:11;;;;;;;;;;;;;;;;;;5005147;28;42826;-79
2023/03/06 14:11:37;;;;;;;;;;;;;;;;;;5006875;28;44884;-80
2023/03/06 14:14:02;;;;;;;;;;;;;;;;;;5015899;28;43011;-80
2023/03/06 14:16:28;;;;;;;;;;;;;;;;;;5014047;28;43072;-79
2023/03/06 14:18:54;;;;;;;;;;;;;;;;;;5027407;28;43200;-80
2023/03/06 14:21:20;;;;;;;;;;;;;;;;;;5012446;28;42971;-81
2023/03/06 14:23:46;;;;;;;;;;;;;;;;;;5017509;28;43189;-79
2023/03/06 14:26:14;;;;;;;;;;;;;;;;;;5030295;28;44446;-81
2023/03/06 14:28:40;;;;;;;;;;;;;;;;;;5016709;28;43017;-82
2023/03/06 14:31:06;;;;;;;;;;;;;;;;;;5016988;28;43696;-81
2023/03/06 14:33:32;;;;;;;;;;;;;;;;;;5014701;28;43196;-81
2023/03/06 14:35:57;;;;;;;;;;;;;;;;;;5016291;28;42959;-80
2023/03/06 14:38:23;;;;;;;;;;;;;;;;;;5016461;28;43308;-83
2023/03/06 14:40:51;;;;;;;;;;;;;;;;;;5015249;28;43846;-79
2023/03/06 14:43:18;;;;;;;;;;;;;;;;;;5015304;28;42976;-79
2023/03/06 14:45:44;;;;;;;;;;;;;;;;;;5015703;28;43567;-80
2023/03/06 14:48:10;;;;;;;;;;;;;;;;;;5014995;28;42943;-79
2023/03/06 14:50:36;;;;;;;;;;;;;;;;;;5016733;28;42996;-81
2023/03/06 14:53:01;;;;;;;;;;;;;;;;;;5015979;28;42967;-79
2023/03/06 14:55:27;;;;;;;;;;;;;;;;;;5015072;28;43018;-80
2023/03/06 14:57:53;;;;;;;;;;;;;;;;;;5016491;28;43055;-80
2023/03/06 15:00:19;;;;;;;;;;;;;;;;;;5015190;28;42961;-79
2023/03/06 15:02:45;;;;;;;;;;;;;;;;;;5015146;28;43053;-82
2023/03/06 15:05:11;;;;;;;;;;;;;;;;;;5008135;28;43463;-80
2023/03/06 15:07:37;;;;;;;;;;;;;;;;;;5015326;28;43034;-79
2023/03/06 15:10:05;;;;;;;;;;;;;;;;;;5016560;28;42793;-78
2023/03/06 15:12:34;;;;;;;;;;;;;;;;;;5015382;28;42937;-79
2023/03/06 15:15:01;;;;;;;;;;;;;;;;;;5014677;28;43582;-79
2023/03/06 15:17:27;;;;;;;;;;;;;;;;;;5015520;28;43001;-79
2023/03/06 15:19:53;;;;;;;;;;;;;;;;;;5015886;28;43802;-78
2023/03/06 15:22:19;;;;;;;;;;;;;;;;;;5015564;28;42980;-80
2023/03/06 15:24:45;;;;;;;;;;;;;;;;;;5014731;28;43477;-80
2023/03/06 15:27:11;;;;;;;;;;;;;;;;;;5016498;28;42817;-79
2023/03/06 15:29:36;;;;;;;;;;;;;;;;;;5015548;28;43634;-81
2023/03/06 15:32:02;;;;;;;;;;;;;;;;;;5014561;28;42751;-80
2023/03/06 15:34:28;;;;;;;;;;;;;;;;;;5015849;28;43818;-79
2023/03/06 15:36:54;;;;;;;;;;;;;;;;;;5010082;28;42929;-78
2023/03/06 15:39:20;;;;;;;;;;;;;;;;;;5004157;28;44429;-78
2023/03/06 15:41:46;;;;;;;;;;;;;;;;;;5000039;28;43102;-80
2023/03/06 15:44:12;;;;;;;;;;;;;;;;;;5028782;28;44670;-81
2023/03/06 15:46:38;;;;;;;;;;;;;;;;;;5013985;28;42859;-81
2023/03/06 15:49:04;;;;;;;;;;;;;;;;;;5030186;28;43988;-80
2023/03/06 15:51:30;;;;;;;;;;;;;;;;;;5015962;28;43184;-80
2023/03/06 15:53:56;;;;;;;;;;;;;;;;;;5028643;28;42996;-82
2023/03/06 15:56:22;;;;;;;;;;;;;;;;;;5006177;28;42830;-80
2023/03/06 15:58:48;;;;;;;;;;;;;;;;;;5008579;28;45258;-80
2023/03/06 16:01:14;;;;;;;;;;;;;;;;;;5014422;28;42951;-81